createdAt,value
2018-06-02T00:01:29.281Z,43.47
2018-06-02T00:04:31.842Z,42.77
2018-06-02T00:07:34.291Z,40.27
2018-06-02T00:10:36.804Z,40.43
2018-06-02T00:13:39.267Z,41.40
2018-06-02T00:16:41.762Z,42.07
2018-06-02T00:19:44.340Z,42.37
2018-06-02T00:22:46.917Z,41.03
2018-06-02T00:25:49.415Z,41.40
2018-06-02T00:28:51.925Z,43.23
2018-06-02T00:31:54.401Z,40.80
2018-06-02T00:34:56.900Z,42.73
2018-06-02T00:37:59.367Z,44.50
2018-06-02T00:41:01.884Z,43.87
2018-06-02T00:44:04.422Z,43.60
2018-06-02T00:47:06.907Z,45.40
2018-06-02T00:50:09.447Z,43.83
2018-06-02T00:53:11.905Z,45.03
2018-06-02T00:56:14.406Z,41.57
2018-06-02T00:59:16.912Z,43.57
2018-06-02T01:02:19.503Z,44.30
2018-06-02T01:05:21.993Z,48.10
2018-06-02T01:08:24.473Z,50.77
2018-06-02T01:11:26.959Z,50.93
2018-06-02T01:14:29.566Z,52.10
2018-06-02T01:17:32.044Z,54.87
2018-06-02T01:20:34.503Z,56.67
2018-06-02T01:23:36.962Z,55.27
2018-06-02T01:26:39.422Z,58.03
2018-06-02T01:29:41.918Z,58.13
2018-06-02T01:32:47.021Z,59.77
2018-06-02T01:35:49.527Z,60.40
2018-06-02T01:38:52.023Z,61.87
2018-06-02T01:41:54.551Z,64.93
2018-06-02T01:44:57.109Z,64.50
2018-06-02T01:47:59.596Z,66.40
2018-06-02T01:51:02.064Z,61.50
2018-06-02T01:54:04.562Z,62.33
2018-06-02T01:57:07.062Z,62.43
2018-06-02T02:00:09.747Z,63.93
2018-06-02T02:03:12.188Z,62.80
2018-06-02T02:06:14.687Z,62.87
2018-06-02T02:09:17.240Z,63.33
2018-06-02T02:12:19.793Z,60.40
2018-06-02T02:15:22.249Z,64.10
2018-06-02T02:18:24.815Z,60.53
2018-06-02T02:21:27.276Z,62.70
2018-06-02T02:24:29.763Z,61.87
2018-06-02T02:27:32.199Z,61.17
2018-06-02T02:30:34.699Z,59.70
2018-06-02T02:33:37.227Z,61.27
2018-06-02T02:36:39.739Z,65.07
2018-06-02T02:39:42.239Z,64.07
2018-06-02T02:42:44.762Z,64.90
2018-06-02T02:45:47.271Z,65.13
2018-06-02T02:48:49.839Z,65.17
2018-06-02T02:51:52.313Z,61.33
2018-06-02T02:54:54.789Z,60.23
2018-06-02T02:57:57.239Z,58.10
2018-06-02T03:00:59.762Z,60.77
2018-06-02T03:04:02.258Z,57.87
2018-06-02T03:07:04.716Z,59.13
2018-06-02T03:10:07.218Z,61.50
2018-06-02T03:13:10.594Z,61.57
2018-06-02T03:16:13.068Z,63.13
2018-06-02T03:19:15.649Z,63.43
2018-06-02T03:22:18.234Z,62.97
2018-06-02T03:25:20.763Z,64.83
2018-06-02T03:28:23.266Z,62.40
2018-06-02T03:31:25.813Z,65.57
2018-06-02T03:34:28.307Z,65.47
2018-06-02T03:37:30.783Z,60.17
2018-06-02T03:40:33.253Z,61.50
2018-06-02T03:43:35.783Z,65.37
2018-06-02T03:46:38.236Z,63.90
2018-06-02T03:49:40.784Z,67.07
2018-06-02T03:52:43.294Z,63.97
2018-06-02T03:55:45.754Z,63.60
2018-06-02T03:58:48.223Z,64.97
2018-06-02T04:01:50.733Z,66.43
2018-06-02T04:04:53.287Z,67.20
2018-06-02T04:07:55.867Z,66.10
2018-06-02T04:10:58.387Z,63.80
2018-06-02T04:14:00.873Z,62.80
2018-06-02T04:17:03.318Z,63.53
2018-06-02T04:20:05.823Z,62.13
2018-06-02T04:23:08.994Z,61.13
2018-06-02T04:26:11.489Z,63.07
2018-06-02T04:29:13.968Z,61.87
2018-06-02T04:32:16.553Z,63.30
2018-06-02T04:35:19.038Z,58.87
2018-06-02T04:38:21.593Z,62.17
2018-06-02T04:41:24.102Z,63.03
2018-06-02T04:44:26.598Z,60.00
2018-06-02T04:47:29.118Z,57.13
2018-06-02T04:50:31.591Z,58.33
2018-06-02T04:53:34.056Z,56.03
2018-06-02T04:56:36.646Z,54.17
2018-06-02T04:59:39.094Z,56.90
2018-06-02T05:02:41.608Z,55.20
2018-06-02T05:05:44.130Z,54.23
2018-06-02T05:08:46.747Z,53.57
2018-06-02T05:11:49.208Z,51.87
2018-06-02T05:14:51.700Z,53.10
2018-06-02T05:17:54.179Z,49.43
2018-06-02T05:20:56.747Z,48.50
2018-06-02T05:23:59.236Z,48.40
2018-06-02T05:27:01.739Z,47.70
2018-06-02T05:30:04.217Z,47.10
2018-06-02T05:33:06.719Z,45.43
2018-06-02T05:36:09.198Z,46.73
2018-06-02T05:39:11.750Z,48.10
2018-06-02T05:42:14.211Z,47.50
2018-06-02T05:45:16.735Z,46.60
2018-06-02T05:48:19.184Z,44.80
2018-06-02T05:51:21.679Z,43.97
2018-06-02T05:54:24.150Z,45.27
2018-06-02T05:57:26.680Z,44.90
2018-06-02T06:00:29.216Z,44.37
2018-06-02T06:03:31.684Z,44.10
2018-06-02T06:06:34.184Z,43.27
2018-06-02T06:09:37.530Z,42.63
2018-06-02T06:12:40.021Z,41.37
2018-06-02T06:15:42.498Z,45.63
2018-06-02T06:18:44.996Z,44.40
2018-06-02T06:21:47.451Z,43.00
2018-06-02T06:24:49.961Z,43.97
2018-06-02T06:27:52.514Z,46.20
2018-06-02T06:30:54.991Z,45.73
2018-06-02T06:33:57.534Z,44.20
2018-06-02T06:36:59.983Z,45.00
2018-06-02T06:40:02.490Z,43.17
2018-06-02T06:43:04.944Z,44.77
2018-06-02T06:46:07.457Z,44.57
2018-06-02T06:49:10.040Z,43.27
2018-06-02T06:52:12.535Z,43.20
2018-06-02T06:55:14.989Z,43.13
2018-06-02T06:58:17.481Z,42.83
2018-06-02T07:01:20.012Z,45.00
2018-06-02T07:04:22.525Z,43.33
2018-06-02T07:07:24.973Z,44.30
2018-06-02T07:10:27.504Z,42.40
2018-06-02T07:13:29.976Z,43.07
2018-06-02T07:16:32.556Z,44.57
2018-06-02T07:19:35.005Z,41.27
2018-06-02T07:22:37.507Z,41.70
2018-06-02T07:25:39.984Z,39.00
2018-06-02T07:28:43.510Z,38.17
2018-06-02T07:31:47.131Z,37.60
2018-06-02T07:34:49.689Z,35.23
2018-06-02T07:37:52.180Z,36.03
2018-06-02T07:40:55.940Z,35.37
2018-06-02T07:43:58.425Z,33.60
2018-06-02T07:47:00.985Z,33.63
2018-06-02T07:50:03.506Z,34.30
2018-06-02T07:53:06.032Z,32.73
2018-06-02T07:56:08.491Z,33.30
2018-06-02T07:59:11.035Z,33.57
2018-06-02T08:02:14.341Z,32.80
2018-06-02T08:05:16.840Z,32.30
2018-06-02T08:08:19.386Z,32.13
2018-06-02T08:11:21.822Z,32.90
2018-06-02T08:14:24.381Z,32.27
2018-06-02T08:17:26.877Z,31.47
2018-06-02T08:20:29.404Z,31.20
2018-06-02T08:23:31.991Z,29.20
2018-06-02T08:26:34.458Z,30.27
2018-06-02T08:29:36.991Z,29.80
2018-06-02T08:32:39.527Z,28.50
2018-06-02T08:35:42.076Z,28.50
2018-06-02T08:38:44.560Z,28.10
2018-06-02T08:41:47.111Z,27.97
2018-06-02T08:44:49.614Z,26.97
2018-06-02T08:47:52.096Z,25.80
2018-06-02T08:50:54.662Z,24.67
2018-06-02T08:53:57.132Z,25.77
2018-06-02T08:56:59.762Z,23.10
2018-06-02T09:00:02.241Z,23.57
2018-06-02T09:03:04.732Z,23.90
2018-06-02T09:06:07.241Z,23.10
2018-06-02T09:09:09.993Z,25.03
2018-06-02T09:12:12.456Z,22.60
2018-06-02T09:15:14.996Z,22.70
2018-06-02T09:18:17.442Z,20.83
2018-06-02T09:21:20.004Z,20.93
2018-06-02T09:24:22.516Z,19.47
2018-06-02T09:27:24.979Z,19.20
2018-06-02T09:30:27.607Z,19.20
2018-06-02T09:33:30.072Z,18.43
2018-06-02T09:36:33.411Z,18.30
2018-06-02T09:39:35.911Z,18.67
2018-06-02T09:42:38.422Z,17.40
2018-06-02T09:45:41.008Z,18.00
2018-06-02T09:48:43.513Z,17.83
2018-06-02T09:51:45.973Z,17.67
2018-06-02T09:54:48.582Z,16.27
2018-06-02T09:57:51.080Z,17.23
2018-06-02T10:00:53.654Z,16.60
2018-06-02T10:03:56.192Z,17.80
2018-06-02T10:06:58.670Z,18.60
2018-06-02T10:10:01.192Z,18.10
2018-06-02T10:13:03.713Z,17.53
2018-06-02T10:16:06.162Z,17.77
2018-06-02T10:19:08.704Z,17.13
2018-06-02T10:22:11.278Z,17.10
2018-06-02T10:25:13.855Z,16.37
2018-06-02T10:28:16.352Z,16.70
2018-06-02T10:31:18.802Z,16.47
2018-06-02T10:34:21.287Z,16.47
2018-06-02T10:37:23.769Z,16.77
2018-06-02T10:40:26.247Z,16.13
2018-06-02T10:43:28.808Z,17.10
2018-06-02T10:46:31.349Z,17.53
2018-06-02T10:49:33.908Z,17.03
2018-06-02T10:52:36.447Z,17.60
2018-06-02T10:55:38.968Z,17.40
2018-06-02T10:58:41.483Z,18.30
2018-06-02T11:01:44.087Z,18.27
2018-06-02T11:04:46.905Z,17.63
2018-06-02T11:07:49.401Z,18.30
2018-06-02T11:10:51.877Z,18.67
2018-06-02T11:13:54.405Z,18.83
2018-06-02T11:16:56.903Z,21.23
2018-06-02T11:19:59.605Z,19.90
2018-06-02T11:23:02.080Z,19.40
2018-06-02T11:26:04.621Z,18.93
2018-06-02T11:29:07.104Z,20.10
2018-06-02T11:32:09.585Z,19.70
2018-06-02T11:35:12.168Z,20.87
2018-06-02T11:38:14.625Z,19.83
2018-06-02T11:41:17.202Z,18.77
2018-06-02T11:44:19.793Z,19.17
2018-06-02T11:47:22.278Z,20.03
2018-06-02T11:50:24.762Z,19.90
2018-06-02T11:53:27.279Z,17.70
2018-06-02T11:56:29.788Z,19.17
2018-06-02T11:59:32.263Z,19.00
2018-06-02T12:02:34.774Z,18.20
2018-06-02T12:05:37.394Z,19.63
2018-06-02T12:08:39.893Z,18.50
2018-06-02T12:11:42.415Z,18.90
2018-06-02T12:14:44.969Z,18.60
2018-06-02T12:17:47.534Z,17.67
2018-06-02T12:20:49.986Z,16.30
2018-06-02T12:23:52.499Z,15.07
2018-06-02T12:26:55.045Z,16.43
2018-06-02T12:29:57.563Z,17.87
2018-06-02T12:33:00.015Z,17.43
2018-06-02T12:36:02.609Z,16.23
2018-06-02T12:39:05.860Z,16.20
2018-06-02T12:42:08.336Z,15.47
2018-06-02T12:45:10.899Z,16.40
2018-06-02T12:48:13.544Z,15.40
2018-06-02T12:51:16.005Z,15.33
2018-06-02T12:54:18.511Z,17.47
2018-06-02T12:57:21.017Z,16.27
2018-06-02T13:00:23.486Z,18.40
2018-06-02T13:03:25.966Z,18.53
2018-06-02T13:06:28.415Z,19.47
2018-06-02T13:09:30.919Z,20.30
2018-06-02T13:12:33.384Z,19.57
2018-06-02T13:15:35.885Z,19.40
2018-06-02T13:18:38.489Z,19.57
2018-06-02T13:21:41.031Z,18.37
2018-06-02T13:24:43.536Z,18.20
2018-06-02T13:27:45.996Z,19.63
2018-06-02T13:30:48.474Z,19.20
2018-06-02T13:33:50.968Z,21.00
2018-06-02T13:36:53.550Z,19.70
2018-06-02T13:39:56.028Z,20.43
2018-06-02T13:42:58.548Z,20.47
2018-06-02T13:46:01.047Z,21.43
2018-06-02T13:49:03.550Z,20.53
2018-06-02T13:52:06.052Z,21.07
2018-06-02T13:55:08.532Z,19.53
2018-06-02T13:58:11.154Z,19.10
2018-06-02T14:01:13.660Z,18.57
2018-06-02T14:04:16.165Z,18.40
2018-06-02T14:07:18.655Z,18.63
2018-06-02T14:10:21.175Z,17.57
2018-06-02T14:13:23.708Z,17.00
2018-06-02T14:16:26.200Z,18.33
2018-06-02T14:19:28.780Z,18.90
2018-06-02T14:22:31.276Z,19.17
2018-06-02T14:25:33.909Z,18.13
2018-06-02T14:28:36.384Z,18.83
2018-06-02T14:31:38.862Z,17.10
2018-06-02T14:34:41.371Z,19.40
2018-06-02T14:37:43.930Z,21.23
2018-06-02T14:40:46.460Z,20.73
2018-06-02T14:43:48.961Z,21.10
2018-06-02T14:46:51.473Z,22.77
2018-06-02T14:49:54.010Z,22.73
2018-06-02T14:52:56.515Z,24.40
2018-06-02T14:55:58.997Z,22.53
2018-06-02T14:59:01.517Z,23.00
2018-06-02T15:02:04.142Z,22.30
2018-06-02T15:05:06.624Z,21.83
2018-06-02T15:08:09.130Z,21.17
2018-06-02T15:11:11.643Z,21.83
2018-06-02T15:14:14.140Z,21.90
2018-06-02T15:17:16.701Z,21.43
2018-06-02T15:20:19.175Z,20.30
2018-06-02T15:23:21.751Z,20.83
2018-06-02T15:26:24.294Z,19.30
2018-06-02T15:29:26.806Z,18.70
2018-06-02T15:32:29.341Z,20.30
2018-06-02T15:35:31.942Z,20.67
2018-06-02T15:38:34.457Z,20.67
2018-06-02T15:41:37.002Z,19.70
2018-06-02T15:44:39.487Z,19.80
2018-06-02T15:47:42.042Z,19.60
2018-06-02T15:50:44.529Z,21.73
2018-06-02T15:53:47.057Z,21.03
2018-06-02T15:56:51.491Z,20.13
2018-06-02T15:59:53.975Z,21.40
2018-06-02T16:02:56.487Z,20.47
2018-06-02T16:05:58.986Z,20.80
2018-06-02T16:09:01.491Z,22.17
2018-06-02T16:12:03.987Z,23.10
2018-06-02T16:15:06.501Z,22.20
2018-06-02T16:18:09.003Z,23.57
2018-06-02T16:21:11.511Z,23.50
2018-06-02T16:24:14.018Z,39.90
2018-06-02T16:27:16.528Z,26.97
2018-06-02T16:30:19.074Z,22.90
2018-06-02T16:33:21.568Z,21.57
2018-06-02T16:36:24.067Z,29.17
2018-06-02T16:39:26.533Z,23.80
2018-06-02T16:42:29.027Z,23.00
2018-06-02T16:45:31.514Z,23.33
2018-06-02T16:48:34.041Z,22.17
2018-06-02T16:51:36.541Z,22.30
2018-06-02T16:54:39.075Z,21.60
2018-06-02T16:57:41.583Z,20.33
2018-06-02T17:00:44.085Z,22.27
2018-06-02T17:03:46.597Z,21.67
2018-06-02T17:06:49.121Z,21.60
2018-06-02T17:09:51.664Z,19.50
2018-06-02T17:12:54.193Z,20.97
2018-06-02T17:15:56.756Z,19.67
2018-06-02T17:18:59.333Z,20.40
2018-06-02T17:22:01.878Z,21.93
2018-06-02T17:25:04.434Z,23.13
2018-06-02T17:28:06.953Z,21.70
2018-06-02T17:31:09.457Z,21.73
2018-06-02T17:34:11.948Z,20.53
2018-06-02T17:37:14.496Z,20.83
2018-06-02T17:40:17.042Z,21.67
2018-06-02T17:43:19.547Z,21.70
2018-06-02T17:46:22.052Z,21.93
2018-06-02T17:49:24.497Z,20.17
2018-06-02T17:52:27.014Z,20.30
2018-06-02T17:55:29.557Z,21.13
2018-06-02T17:58:32.070Z,20.97
2018-06-02T18:01:34.597Z,22.50
2018-06-02T18:04:37.074Z,21.90
2018-06-02T18:07:39.557Z,22.90
2018-06-02T18:10:42.018Z,21.43
2018-06-02T18:13:44.526Z,21.60
2018-06-02T18:16:46.996Z,24.10
2018-06-02T18:19:49.557Z,24.40
2018-06-02T18:22:52.062Z,26.47
2018-06-02T18:25:54.571Z,24.53
2018-06-02T18:28:57.076Z,25.27
2018-06-02T18:31:59.588Z,26.80
2018-06-02T18:35:02.090Z,27.00
2018-06-02T18:38:04.584Z,27.83
2018-06-02T18:41:07.046Z,27.90
2018-06-02T18:44:09.578Z,27.30
2018-06-02T18:47:12.139Z,26.90
2018-06-02T18:50:14.787Z,26.73
2018-06-02T18:53:17.281Z,29.30
2018-06-02T18:56:19.807Z,24.67
2018-06-02T18:59:22.372Z,26.60
2018-06-02T19:02:24.916Z,27.17
2018-06-02T19:05:27.477Z,26.50
2018-06-02T19:08:30.002Z,25.43
2018-06-02T19:11:32.468Z,27.23
2018-06-02T19:14:35.008Z,27.60
2018-06-02T19:17:37.546Z,25.07
2018-06-02T19:20:40.071Z,26.73
2018-06-02T19:23:42.583Z,24.83
2018-06-02T19:26:45.047Z,26.10
2018-06-02T19:29:47.643Z,27.40
2018-06-02T19:32:50.133Z,29.37
2018-06-02T19:35:52.658Z,26.30
2018-06-02T19:38:55.190Z,26.80
2018-06-02T19:41:57.735Z,27.77
2018-06-02T19:45:00.290Z,28.47
2018-06-02T19:48:02.859Z,27.83
2018-06-02T19:51:05.352Z,28.20
2018-06-02T19:54:07.875Z,29.77
2018-06-02T19:57:10.543Z,29.90
2018-06-02T20:00:12.998Z,29.23
2018-06-02T20:03:15.556Z,28.80
2018-06-02T20:06:18.030Z,29.13
2018-06-02T20:09:20.489Z,29.63
2018-06-02T20:12:22.999Z,29.60
2018-06-02T20:15:25.457Z,31.27
2018-06-02T20:18:27.964Z,30.03
2018-06-02T20:21:30.423Z,29.60
2018-06-02T20:24:32.963Z,29.40
2018-06-02T20:27:35.560Z,30.50
2018-06-02T20:30:38.139Z,29.97
2018-06-02T20:33:40.781Z,30.47
2018-06-02T20:36:43.256Z,30.67
2018-06-02T20:39:45.803Z,30.90
2018-06-02T20:42:48.296Z,30.13
2018-06-02T20:45:50.844Z,30.70
2018-06-02T20:48:53.314Z,31.23
2018-06-02T20:51:55.921Z,33.27
2018-06-02T20:54:58.424Z,31.93
2018-06-02T20:58:00.946Z,32.73
2018-06-02T21:01:03.515Z,32.93
2018-06-02T21:04:06.105Z,32.83
2018-06-02T21:07:08.610Z,32.17
2018-06-02T21:10:11.120Z,33.43
2018-06-02T21:13:13.621Z,32.50
2018-06-02T21:16:16.101Z,31.50
2018-06-02T21:19:18.596Z,33.07
2018-06-02T21:22:21.122Z,31.87
2018-06-02T21:25:23.681Z,31.40
2018-06-02T21:28:26.155Z,30.37
2018-06-02T21:31:28.708Z,31.97
2018-06-02T21:34:31.218Z,32.00
2018-06-02T21:37:33.701Z,31.53
2018-06-02T21:40:36.239Z,32.60
2018-06-02T21:43:38.809Z,32.47
2018-06-02T21:46:41.353Z,32.30
2018-06-02T21:49:43.840Z,32.20
2018-06-02T21:52:46.416Z,33.40
2018-06-02T21:55:48.956Z,32.47
2018-06-02T21:58:51.515Z,31.97
2018-06-02T22:01:54.133Z,33.47
2018-06-02T22:04:56.735Z,33.23
2018-06-02T22:07:59.195Z,32.07
2018-06-02T22:11:01.818Z,34.07
2018-06-02T22:14:04.285Z,32.73
2018-06-02T22:17:06.808Z,33.27
2018-06-02T22:20:09.352Z,29.70
2018-06-02T22:23:11.815Z,30.63
2018-06-02T22:26:14.305Z,29.87
2018-06-02T22:29:16.866Z,29.57
2018-06-02T22:32:19.355Z,29.97
2018-06-02T22:35:21.861Z,30.37
2018-06-02T22:38:24.347Z,31.43
2018-06-02T22:41:26.800Z,34.60
2018-06-02T22:44:29.285Z,32.83
2018-06-02T22:47:31.773Z,31.30
2018-06-02T22:50:34.371Z,32.97
2018-06-02T22:53:36.976Z,33.30
2018-06-02T22:56:39.425Z,34.50
2018-06-02T22:59:41.924Z,32.67
2018-06-02T23:02:44.439Z,32.80
2018-06-02T23:05:46.900Z,32.90
2018-06-02T23:08:49.386Z,33.07
2018-06-02T23:11:51.880Z,32.70
2018-06-02T23:14:54.449Z,33.73
2018-06-02T23:17:56.937Z,33.73
2018-06-02T23:20:59.470Z,34.23
2018-06-02T23:24:02.000Z,34.67
2018-06-02T23:27:04.501Z,33.37
2018-06-02T23:30:06.984Z,35.33
2018-06-02T23:33:09.484Z,35.80
2018-06-02T23:36:12.326Z,35.37
2018-06-02T23:39:14.839Z,35.73
2018-06-02T23:42:17.324Z,35.17
2018-06-02T23:45:19.833Z,34.30
2018-06-02T23:48:22.405Z,33.50
2018-06-02T23:51:25.006Z,31.70
2018-06-02T23:54:27.554Z,32.20
2018-06-02T23:57:30.035Z,33.37
